Time;durP1;ratioP1;P1;durP2;ratioP2;P2;SDS_P1;SDS_P2;PMS_P1;PMS_P2;Temp;Humidity;BMP_temperature;BMP_pressure;BME280_temperature;BME280_humidity;BME280_pressure;Samples;Min_cycle;Max_cycle;Signal;HPM_P1;HPM_P2
2021/12/31 00:01:08;;;;;;;0.75;0.75;;;11.70;99.90;;;;;;5023888;28;20691;-75
2021/12/31 00:03:33;;;;;;;0.73;0.73;;;11.60;99.90;;;;;;5032063;28;20185;-75
2021/12/31 00:05:59;;;;;;;0.93;0.93;;;11.50;99.90;;;;;;5031760;28;20192;-75
2021/12/31 00:08:25;;;;;;;1.10;1.00;;;11.60;99.90;;;;;;5032162;28;20185;-75
2021/12/31 00:10:55;;;;;;;0.65;0.65;;;11.50;99.90;;;;;;5022285;28;20201;-75
2021/12/31 00:13:20;;;;;;;1.40;1.00;;;11.50;99.90;;;;;;5034964;28;20222;-75
2021/12/31 00:15:46;;;;;;;2.03;1.00;;;11.60;99.90;;;;;;5030573;28;20193;-75
2021/12/31 00:18:12;;;;;;;1.17;0.80;;;11.50;99.90;;;;;;5033782;28;20213;-75
2021/12/31 00:20:40;;;;;;;0.80;0.80;;;11.60;99.90;;;;;;5024111;28;21868;-75
2021/12/31 00:23:08;;;;;;;0.80;0.80;;;11.60;99.90;;;;;;5035823;28;20607;-75
2021/12/31 00:25:37;;;;;;;1.02;1.02;;;11.70;99.90;;;;;;5030023;28;20199;-75
2021/12/31 00:28:03;;;;;;;1.48;0.80;;;11.70;99.90;;;;;;5034095;28;20185;-75
2021/12/31 00:30:29;;;;;;;0.80;0.80;;;11.80;99.90;;;;;;5022233;28;21254;-75
2021/12/31 00:32:55;;;;;;;0.90;0.90;;;11.80;99.90;;;;;;5030910;28;20205;-75
2021/12/31 00:35:21;;;;;;;1.33;1.00;;;11.80;99.90;;;;;;5031637;28;20264;-75
2021/12/31 00:37:47;;;;;;;0.82;0.82;;;11.70;99.90;;;;;;5033301;28;20203;-75
2021/12/31 00:40:16;;;;;;;1.02;1.00;;;11.70;99.90;;;;;;5027508;28;20267;-75
2021/12/31 00:42:41;;;;;;;0.60;0.60;;;11.70;99.90;;;;;;5033689;28;20578;-75
2021/12/31 00:45:10;;;;;;;1.27;1.00;;;11.60;99.90;;;;;;5030120;28;20259;-75
2021/12/31 00:47:36;;;;;;;0.93;0.93;;;11.60;99.90;;;;;;5030010;28;20192;-75
2021/12/31 00:50:01;;;;;;;0.95;0.85;;;11.60;99.90;;;;;;5032747;28;20181;-75
2021/12/31 00:52:27;;;;;;;2.40;0.50;;;11.60;99.90;;;;;;5034724;28;20180;-75
2021/12/31 00:54:53;;;;;;;0.80;0.80;;;11.70;99.90;;;;;;5022291;28;20185;-75
2021/12/31 00:57:18;;;;;;;0.80;0.80;;;11.80;99.90;;;;;;5032083;28;20204;-76
2021/12/31 00:59:44;;;;;;;0.90;0.55;;;11.70;99.90;;;;;;5033896;28;20243;-75
2021/12/31 01:02:13;;;;;;;1.45;1.35;;;11.70;99.90;;;;;;5034062;28;20193;-75
2021/12/31 01:04:41;;;;;;;1.13;1.00;;;11.80;99.90;;;;;;5030155;28;20176;-79
2021/12/31 01:07:07;;;;;;;1.45;1.20;;;11.70;99.90;;;;;;5025627;28;20271;-75
2021/12/31 01:09:33;;;;;;;1.33;0.88;;;11.80;99.90;;;;;;5025846;28;20189;-74
2021/12/31 01:12:01;;;;;;;1.55;0.82;;;11.80;99.90;;;;;;5031193;28;20207;-75
2021/12/31 01:14:42;;;;;;;0.90;0.88;;;11.70;99.90;;;;;;5033322;28;20176;-75
2021/12/31 01:17:11;;;;;;;2.15;0.88;;;11.70;99.90;;;;;;5025551;28;20266;-75
2021/12/31 01:19:48;;;;;;;0.90;0.90;;;11.70;99.90;;;;;;5029822;28;20218;-75
2021/12/31 01:22:17;;;;;;;0.85;0.85;;;11.60;99.90;;;;;;5036919;28;20177;-75
2021/12/31 01:24:43;;;;;;;1.17;1.13;;;11.60;99.90;;;;;;5033283;28;20252;-75
2021/12/31 01:27:11;;;;;;;2.17;1.10;;;11.50;99.90;;;;;;5030077;28;20193;-75
2021/12/31 01:29:37;;;;;;;1.15;1.15;;;11.50;99.90;;;;;;5030395;28;20194;-75
2021/12/31 01:32:03;;;;;;;1.00;1.00;;;11.50;99.90;;;;;;5029357;28;20592;-79
2021/12/31 01:34:29;;;;;;;0.85;0.85;;;11.50;99.90;;;;;;5033174;28;20180;-75
2021/12/31 01:36:55;;;;;;;2.78;1.02;;;11.40;99.90;;;;;;5031199;28;20216;-75
2021/12/31 01:39:20;;;;;;;1.00;1.00;;;11.40;99.90;;;;;;5025819;28;20203;-75
2021/12/31 01:41:46;;;;;;;0.93;0.93;;;11.40;99.90;;;;;;5032504;28;20229;-75
2021/12/31 01:44:12;;;;;;;0.95;0.90;;;11.40;99.90;;;;;;5029606;28;20296;-75
2021/12/31 01:46:52;;;;;;;1.10;1.10;;;11.40;99.90;;;;;;5030845;28;20546;-75
2021/12/31 01:49:20;;;;;;;1.35;1.30;;;11.40;99.90;;;;;;5026833;28;20663;-75
2021/12/31 01:51:46;;;;;;;2.15;1.20;;;11.40;99.90;;;;;;5031505;28;20200;-75
2021/12/31 01:54:12;;;;;;;0.68;0.68;;;11.30;99.90;;;;;;5031700;28;20185;-75
2021/12/31 01:56:38;;;;;;;2.53;1.20;;;11.30;99.90;;;;;;5030739;28;20223;-75
2021/12/31 01:59:06;;;;;;;0.98;0.98;;;11.30;99.90;;;;;;5026655;28;20683;-75
2021/12/31 02:01:32;;;;;;;0.93;0.93;;;11.30;99.90;;;;;;5029152;28;20570;-75
2021/12/31 02:03:59;;;;;;;0.70;0.70;;;11.30;99.90;;;;;;5026955;28;20185;-75
2021/12/31 02:06:25;;;;;;;0.80;0.80;;;11.30;99.90;;;;;;5032987;28;20538;-75
2021/12/31 02:08:51;;;;;;;0.73;0.73;;;11.30;99.90;;;;;;5026222;28;20185;-76
2021/12/31 02:11:18;;;;;;;1.10;1.00;;;11.40;99.90;;;;;;5029033;28;20698;-76
2021/12/31 02:13:43;;;;;;;1.75;0.73;;;11.40;99.90;;;;;;5026611;28;20184;-74
2021/12/31 02:16:09;;;;;;;0.88;0.88;;;11.40;99.90;;;;;;5028887;28;20181;-76
2021/12/31 02:18:35;;;;;;;1.02;1.00;;;11.50;99.90;;;;;;5029368;28;20290;-75
2021/12/31 02:21:03;;;;;;;0.90;0.90;;;11.50;99.90;;;;;;5024535;28;20208;-76
2021/12/31 02:23:38;;;;;;;0.98;0.98;;;11.40;99.90;;;;;;5022555;28;20184;-75
2021/12/31 02:26:07;;;;;;;0.90;0.90;;;11.50;99.90;;;;;;5023950;28;20184;-75
2021/12/31 02:28:33;;;;;;;2.03;0.88;;;11.60;99.90;;;;;;5030772;28;20176;-76
2021/12/31 02:31:03;;;;;;;1.13;1.02;;;11.70;99.90;;;;;;5029725;28;20238;-75
2021/12/31 02:33:28;;;;;;;0.88;0.82;;;11.60;99.90;;;;;;5023056;28;20208;-75
2021/12/31 02:35:54;;;;;;;2.20;0.73;;;11.60;99.90;;;;;;5033056;28;20180;-75
2021/12/31 02:38:19;;;;;;;1.33;1.13;;;11.50;99.90;;;;;;5028364;28;20207;-75
2021/12/31 02:40:45;;;;;;;0.90;0.90;;;11.50;99.90;;;;;;5025501;28;20207;-75
2021/12/31 02:43:11;;;;;;;1.60;0.98;;;11.50;99.90;;;;;;5022614;28;20188;-75
2021/12/31 02:45:37;;;;;;;0.98;0.98;;;11.50;99.90;;;;;;5031809;28;20217;-75
2021/12/31 02:48:05;;;;;;;0.68;0.68;;;11.50;99.90;;;;;;5033564;28;20524;-75
2021/12/31 02:50:34;;;;;;;1.95;0.93;;;11.60;99.90;;;;;;5028782;28;20843;-75
2021/12/31 02:53:12;;;;;;;0.88;0.88;;;11.50;99.90;;;;;;5022585;28;20223;-74
2021/12/31 02:55:40;;;;;;;0.70;0.70;;;11.50;99.90;;;;;;5023031;28;20267;-74
2021/12/31 02:58:07;;;;;;;5.00;1.10;;;11.50;99.90;;;;;;5030429;28;20213;-75
2021/12/31 03:00:35;;;;;;;1.00;1.00;;;11.50;99.90;;;;;;5022579;28;20239;-75
2021/12/31 03:03:04;;;;;;;1.00;0.90;;;11.30;99.90;;;;;;5022817;28;20214;-74
2021/12/31 03:05:33;;;;;;;0.95;0.95;;;11.20;99.90;;;;;;5032831;28;20187;-75
2021/12/31 03:08:02;;;;;;;1.52;0.90;;;11.10;99.90;;;;;;5026203;28;20200;-75
2021/12/31 03:10:29;;;;;;;0.93;0.90;;;11.10;99.90;;;;;;5025318;28;20262;-75
2021/12/31 03:12:57;;;;;;;1.10;1.08;;;11.10;99.90;;;;;;5022582;28;20188;-75
2021/12/31 03:15:24;;;;;;;1.00;0.95;;;11.10;99.90;;;;;;5031703;28;20215;-74
2021/12/31 03:17:51;;;;;;;2.20;0.95;;;11.10;99.90;;;;;;5026823;28;20231;-74
2021/12/31 03:20:26;;;;;;;1.02;1.02;;;11.10;99.90;;;;;;5029990;28;20283;-75
2021/12/31 03:22:52;;;;;;;0.80;0.80;;;11.00;99.90;;;;;;5023845;28;20202;-74
2021/12/31 03:25:19;;;;;;;1.00;1.00;;;10.90;99.90;;;;;;5050810;28;20191;-74
2021/12/31 03:27:44;;;;;;;1.35;1.00;;;11.00;99.90;;;;;;5034945;28;20185;-74
2021/12/31 03:30:11;;;;;;;0.88;0.88;;;10.90;99.90;;;;;;5035417;28;20208;-75
2021/12/31 03:32:37;;;;;;;0.70;0.70;;;11.00;99.90;;;;;;5029483;28;20180;-75
2021/12/31 03:35:04;;;;;;;0.80;0.80;;;11.10;99.90;;;;;;5033385;28;20536;-74
2021/12/31 03:37:29;;;;;;;0.60;0.60;;;11.30;99.90;;;;;;5036082;28;20196;-74
2021/12/31 03:39:55;;;;;;;1.00;0.90;;;11.30;99.90;;;;;;5061740;28;20644;-75
2021/12/31 03:42:21;;;;;;;1.00;1.00;;;11.40;99.90;;;;;;5031578;28;20543;-75
2021/12/31 03:44:46;;;;;;;1.75;1.17;;;11.50;99.90;;;;;;5033712;28;20177;-75
2021/12/31 03:47:12;;;;;;;1.52;0.82;;;11.40;99.90;;;;;;5037075;28;20189;-75
2021/12/31 03:49:38;;;;;;;0.70;0.70;;;11.40;99.90;;;;;;5034039;28;20188;-75
2021/12/31 03:52:04;;;;;;;0.85;0.85;;;11.40;99.90;;;;;;5031175;28;20303;-75
2021/12/31 03:54:30;;;;;;;0.80;0.80;;;11.50;99.90;;;;;;5034952;28;20185;-75
2021/12/31 03:56:55;;;;;;;0.82;0.82;;;11.60;99.90;;;;;;5035663;28;20266;-75
2021/12/31 03:59:21;;;;;;;1.52;1.00;;;11.50;99.90;;;;;;5031848;28;20188;-75
2021/12/31 04:01:47;;;;;;;2.38;0.88;;;11.50;99.90;;;;;;5036886;28;20223;-74
2021/12/31 04:04:13;;;;;;;0.70;0.70;;;11.50;99.90;;;;;;5038954;28;20188;-75
2021/12/31 04:06:39;;;;;;;0.77;0.75;;;11.60;99.90;;;;;;5026345;28;20429;-75
2021/12/31 04:09:05;;;;;;;0.95;0.95;;;11.60;99.90;;;;;;5035258;28;20184;-75
2021/12/31 04:11:32;;;;;;;1.92;1.10;;;11.60;99.90;;;;;;5038059;28;20237;-75
2021/12/31 04:13:58;;;;;;;0.70;0.70;;;11.60;99.90;;;;;;5055330;28;20258;-75
2021/12/31 04:16:24;;;;;;;1.00;1.00;;;11.50;99.90;;;;;;5035958;28;20657;-75
2021/12/31 04:18:49;;;;;;;1.08;1.08;;;11.60;99.90;;;;;;5038468;28;20691;-75
2021/12/31 04:21:17;;;;;;;0.70;0.70;;;11.70;99.90;;;;;;5037033;28;20224;-74
2021/12/31 04:23:53;;;;;;;0.77;0.77;;;11.70;99.90;;;;;;5038455;28;20538;-74
2021/12/31 04:26:19;;;;;;;0.73;0.73;;;11.60;99.90;;;;;;5037352;28;20180;-75
2021/12/31 04:28:46;;;;;;;1.00;1.00;;;11.60;99.90;;;;;;5041425;28;20540;-75
2021/12/31 04:31:12;;;;;;;1.48;1.38;;;11.60;99.90;;;;;;5034564;28;20861;-75
2021/12/31 04:33:38;;;;;;;1.63;1.58;;;11.60;99.90;;;;;;5037508;28;20184;-75
2021/12/31 04:36:04;;;;;;;1.23;1.13;;;11.60;99.90;;;;;;5033908;28;20274;-75
2021/12/31 04:38:29;;;;;;;0.90;0.90;;;11.60;99.90;;;;;;5031896;28;20715;-75
2021/12/31 04:40:55;;;;;;;4.18;1.30;;;11.60;99.90;;;;;;5026292;28;20291;-75
2021/12/31 04:43:20;;;;;;;1.67;0.98;;;11.60;99.90;;;;;;5036497;28;20177;-75
2021/12/31 04:45:46;;;;;;;0.80;0.80;;;11.70;99.90;;;;;;5032559;28;20184;-75
2021/12/31 04:48:12;;;;;;;1.17;1.08;;;11.70;99.90;;;;;;5030943;28;21550;-75
2021/12/31 04:50:37;;;;;;;0.95;0.95;;;11.70;99.90;;;;;;5033105;28;20254;-75
2021/12/31 04:53:04;;;;;;;0.75;0.75;;;11.70;99.90;;;;;;5034173;28;20196;-75
2021/12/31 04:55:31;;;;;;;1.08;1.08;;;11.60;99.90;;;;;;5033075;28;20203;-75
2021/12/31 04:57:57;;;;;;;1.90;0.93;;;11.60;99.90;;;;;;5033160;28;20969;-75
2021/12/31 05:00:22;;;;;;;1.80;1.08;;;11.60;99.90;;;;;;5034226;28;20239;-74
2021/12/31 05:02:48;;;;;;;0.70;0.70;;;11.60;99.90;;;;;;5034353;28;20176;-74
2021/12/31 05:05:14;;;;;;;0.75;0.75;;;11.60;99.90;;;;;;5032364;28;20212;-74
2021/12/31 05:07:40;;;;;;;0.90;0.90;;;11.70;99.90;;;;;;5030906;28;20185;-74
2021/12/31 05:10:06;;;;;;;0.80;0.80;;;11.70;99.90;;;;;;5030195;28;20188;-75
2021/12/31 05:12:34;;;;;;;0.50;0.50;;;11.70;99.90;;;;;;5034543;28;20279;-74
2021/12/31 05:15:01;;;;;;;0.70;0.70;;;11.70;99.90;;;;;;5031374;28;20185;-74
2021/12/31 05:17:27;;;;;;;1.30;0.82;;;11.80;99.90;;;;;;5034020;28;20300;-74
2021/12/31 05:19:53;;;;;;;0.77;0.77;;;11.80;99.90;;;;;;5033009;28;20212;-75
2021/12/31 05:22:18;;;;;;;1.00;0.90;;;11.80;99.90;;;;;;5033488;28;20183;-75
2021/12/31 05:24:44;;;;;;;0.73;0.68;;;11.80;99.90;;;;;;5027949;28;20598;-75
2021/12/31 05:27:10;;;;;;;0.95;0.95;;;11.80;99.90;;;;;;5034642;28;20693;-75
2021/12/31 05:29:36;;;;;;;2.33;1.85;;;11.80;99.90;;;;;;5031527;28;20272;-74
2021/12/31 05:32:01;;;;;;;0.90;0.90;;;11.80;99.90;;;;;;5033028;28;20223;-74
2021/12/31 05:34:27;;;;;;;1.15;1.15;;;11.80;99.90;;;;;;5027779;28;20184;-78
2021/12/31 05:36:53;;;;;;;0.90;0.90;;;11.80;99.90;;;;;;5033868;28;20646;-75
2021/12/31 05:39:18;;;;;;;1.17;1.13;;;11.80;99.90;;;;;;5031473;28;20245;-75
2021/12/31 05:41:44;;;;;;;1.08;0.98;;;11.80;99.90;;;;;;5050970;28;20619;-75
2021/12/31 05:44:10;;;;;;;0.77;0.77;;;11.80;99.90;;;;;;5027706;28;20699;-75
2021/12/31 05:46:36;;;;;;;0.70;0.70;;;11.80;99.90;;;;;;5025006;28;20670;-75
2021/12/31 05:49:03;;;;;;;0.85;0.85;;;11.80;99.90;;;;;;5034139;28;20184;-74
2021/12/31 05:51:30;;;;;;;1.38;1.27;;;11.70;99.90;;;;;;5031017;28;20219;-74
2021/12/31 05:53:56;;;;;;;0.82;0.82;;;11.60;99.90;;;;;;5031848;28;20655;-74
2021/12/31 05:56:21;;;;;;;2.30;1.08;;;11.50;99.90;;;;;;5031432;28;20185;-75
2021/12/31 05:58:47;;;;;;;1.95;1.20;;;11.50;99.90;;;;;;5029633;28;20638;-75
2021/12/31 06:01:13;;;;;;;1.38;0.88;;;11.50;99.90;;;;;;5031461;28;20303;-76
2021/12/31 06:03:38;;;;;;;0.77;0.77;;;11.60;99.90;;;;;;5035020;28;20199;-75
2021/12/31 06:06:04;;;;;;;1.83;0.82;;;11.60;99.90;;;;;;5033608;28;20187;-77
2021/12/31 06:08:30;;;;;;;0.93;0.93;;;11.60;99.90;;;;;;5028388;28;20526;-77
2021/12/31 06:10:56;;;;;;;0.70;0.70;;;11.50;99.90;;;;;;5032598;28;20291;-77
2021/12/31 06:13:22;;;;;;;0.70;0.70;;;11.40;99.90;;;;;;5027452;28;20185;-76
2021/12/31 06:15:55;;;;;;;0.90;0.90;;;11.40;99.90;;;;;;5033580;28;20192;-77
2021/12/31 06:18:21;;;;;;;0.88;0.88;;;11.40;99.90;;;;;;5027906;28;20217;-77
2021/12/31 06:20:47;;;;;;;1.13;1.05;;;11.50;99.90;;;;;;5022534;28;20280;-77
2021/12/31 06:23:13;;;;;;;0.88;0.88;;;11.40;99.90;;;;;;5022156;28;20667;-77
2021/12/31 06:25:39;;;;;;;0.85;0.85;;;11.40;99.90;;;;;;5023934;28;20209;-77
2021/12/31 06:28:05;;;;;;;0.85;0.70;;;11.30;99.90;;;;;;5030112;28;20192;-76
2021/12/31 06:30:30;;;;;;;1.15;1.15;;;11.30;99.90;;;;;;5026468;28;20200;-77
2021/12/31 06:32:56;;;;;;;0.80;0.75;;;11.40;99.90;;;;;;5026500;28;20196;-77
2021/12/31 06:35:22;;;;;;;0.70;0.70;;;11.40;99.90;;;;;;5019568;28;20181;-77
2021/12/31 06:37:48;;;;;;;1.10;1.08;;;11.40;99.90;;;;;;5025842;28;20204;-77
2021/12/31 06:40:15;;;;;;;0.98;0.88;;;11.50;99.90;;;;;;5029056;28;20193;-77
2021/12/31 06:42:41;;;;;;;1.00;1.00;;;11.50;99.90;;;;;;5024539;28;20176;-77
2021/12/31 06:45:07;;;;;;;1.20;1.10;;;11.60;99.90;;;;;;5024585;28;20181;-77
2021/12/31 06:47:33;;;;;;;1.10;1.10;;;11.60;99.90;;;;;;5026915;28;20659;-77
2021/12/31 06:49:59;;;;;;;0.75;0.75;;;11.60;99.90;;;;;;5029939;28;20185;-77
2021/12/31 06:52:24;;;;;;;1.08;1.08;;;11.50;99.90;;;;;;5023718;28;20262;-77
2021/12/31 06:54:50;;;;;;;0.93;0.93;;;11.40;99.90;;;;;;5024721;28;20181;-77
2021/12/31 06:57:16;;;;;;;1.42;1.30;;;11.40;99.90;;;;;;5025561;28;20671;-78
2021/12/31 06:59:41;;;;;;;1.10;1.10;;;11.30;99.90;;;;;;5023936;28;20636;-76
2021/12/31 07:02:07;;;;;;;1.00;1.00;;;11.30;99.90;;;;;;5025727;28;20200;-77
2021/12/31 07:04:33;;;;;;;0.95;0.95;;;11.40;99.90;;;;;;5019476;28;20169;-75
2021/12/31 07:06:58;;;;;;;1.95;1.40;;;11.40;99.90;;;;;;5030399;28;20225;-78
2021/12/31 07:09:24;;;;;;;1.20;1.20;;;11.40;99.90;;;;;;5033534;28;20549;-78
2021/12/31 07:11:50;;;;;;;3.67;1.42;;;11.30;99.90;;;;;;5024696;28;20731;-76
2021/12/31 07:14:15;;;;;;;1.30;1.27;;;11.20;99.90;;;;;;5032771;28;20176;-77
2021/12/31 07:16:41;;;;;;;2.38;1.60;;;11.20;99.90;;;;;;5030705;28;20609;-77
2021/12/31 07:19:06;;;;;;;3.50;2.38;;;11.30;99.90;;;;;;5031379;28;20207;-77
2021/12/31 07:21:32;;;;;;;1.30;1.20;;;11.40;99.90;;;;;;5030424;28;20211;-76
2021/12/31 07:23:58;;;;;;;1.27;1.15;;;11.40;99.90;;;;;;5031281;28;20185;-77
2021/12/31 07:26:23;;;;;;;1.60;1.50;;;11.40;99.90;;;;;;5032915;28;20488;-78
2021/12/31 07:28:49;;;;;;;1.27;1.27;;;11.30;99.90;;;;;;5027331;28;20207;-77
2021/12/31 07:31:16;;;;;;;1.55;1.55;;;11.20;99.90;;;;;;5031573;28;20594;-78
2021/12/31 07:33:42;;;;;;;1.20;1.20;;;11.00;99.90;;;;;;5033120;28;20184;-77
2021/12/31 07:36:08;;;;;;;1.80;1.70;;;10.90;99.90;;;;;;5029915;28;20172;-78
2021/12/31 07:38:38;;;;;;;2.10;1.90;;;10.80;99.90;;;;;;5027363;28;20203;-76
2021/12/31 07:41:05;;;;;;;1.90;1.80;;;10.60;99.90;;;;;;5030418;28;20575;-77
2021/12/31 07:43:31;;;;;;;1.92;1.83;;;10.60;99.90;;;;;;5032472;28;20185;-76
2021/12/31 07:45:57;;;;;;;2.13;1.92;;;10.60;99.90;;;;;;5028256;28;20801;-73
2021/12/31 07:48:23;;;;;;;1.40;1.40;;;10.70;99.90;;;;;;5029506;28;20176;-76
2021/12/31 07:50:50;;;;;;;2.65;1.95;;;10.60;99.90;;;;;;5031689;28;20790;-76
2021/12/31 07:53:16;;;;;;;2.30;1.70;;;10.50;99.90;;;;;;5036668;28;20189;-75
2021/12/31 07:55:43;;;;;;;2.80;1.80;;;10.50;99.90;;;;;;5035006;28;20192;-77
2021/12/31 07:58:08;;;;;;;2.30;2.10;;;10.50;99.90;;;;;;5028300;28;20206;-77
2021/12/31 08:00:35;;;;;;;2.05;1.88;;;10.50;99.90;;;;;;5031493;28;20288;-76
2021/12/31 08:03:01;;;;;;;1.50;1.40;;;10.50;99.90;;;;;;5032213;28;20510;-75
2021/12/31 08:05:28;;;;;;;1.63;1.52;;;10.40;99.90;;;;;;5021772;28;20612;-76
2021/12/31 08:07:54;;;;;;;4.22;1.98;;;10.50;99.90;;;;;;5020560;28;20184;-75
2021/12/31 08:10:20;;;;;;;1.92;1.75;;;10.50;99.90;;;;;;5033010;28;20579;-76
2021/12/31 08:12:46;;;;;;;1.83;1.73;;;10.50;99.90;;;;;;5029170;28;20230;-75
2021/12/31 08:15:13;;;;;;;2.10;2.00;;;10.50;99.90;;;;;;5032223;28;20181;-75
2021/12/31 08:17:38;;;;;;;1.70;1.60;;;10.50;99.90;;;;;;5035191;28;20296;-76
2021/12/31 08:20:06;;;;;;;2.28;1.98;;;10.50;99.90;;;;;;5029158;28;20608;-75
2021/12/31 08:22:31;;;;;;;2.25;2.03;;;10.50;99.90;;;;;;5032396;28;20195;-75
2021/12/31 08:24:57;;;;;;;2.28;1.77;;;10.50;99.90;;;;;;5034517;28;20183;-76
2021/12/31 08:27:23;;;;;;;1.92;1.83;;;10.60;99.90;;;;;;5030323;28;20188;-75
2021/12/31 08:29:48;;;;;;;2.10;1.90;;;10.60;99.90;;;;;;5031036;28;20235;-76
2021/12/31 08:32:14;;;;;;;2.17;2.08;;;10.60;99.90;;;;;;5033996;28;20205;-75
2021/12/31 08:34:39;;;;;;;2.65;1.80;;;10.60;99.90;;;;;;5030995;28;20231;-76
2021/12/31 08:37:05;;;;;;;1.88;1.77;;;10.60;99.90;;;;;;5037314;28;20208;-75
2021/12/31 08:39:31;;;;;;;1.67;1.58;;;10.70;99.90;;;;;;5035671;28;20191;-75
2021/12/31 08:41:57;;;;;;;4.95;2.65;;;10.80;99.90;;;;;;5034604;28;20740;-76
2021/12/31 08:44:22;;;;;;;2.65;1.85;;;10.80;99.90;;;;;;5035789;28;20542;-75
2021/12/31 08:46:48;;;;;;;1.63;1.63;;;10.80;99.90;;;;;;5040072;28;20701;-76
2021/12/31 08:49:14;;;;;;;2.10;1.95;;;10.90;99.90;;;;;;5031192;28;20176;-75
2021/12/31 08:51:40;;;;;;;3.28;2.53;;;11.00;99.90;;;;;;5029531;28;20258;-75
2021/12/31 08:54:06;;;;;;;2.05;1.95;;;11.00;99.90;;;;;;5032858;28;20212;-75
2021/12/31 08:56:32;;;;;;;2.72;2.53;;;11.00;99.90;;;;;;5032029;28;20667;-75
2021/12/31 08:58:58;;;;;;;2.60;2.42;;;10.90;99.90;;;;;;5033803;28;20667;-75
2021/12/31 09:01:23;;;;;;;2.20;2.10;;;10.80;99.90;;;;;;5032525;28;20196;-75
2021/12/31 09:03:49;;;;;;;2.63;2.42;;;10.80;99.90;;;;;;5031901;28;20681;-75
2021/12/31 09:06:18;;;;;;;2.28;2.17;;;11.00;99.90;;;;;;5029990;28;20289;-75
2021/12/31 09:08:45;;;;;;;2.63;2.40;;;11.60;99.90;;;;;;5022622;28;20185;-75
2021/12/31 09:11:11;;;;;;;2.53;2.15;;;12.40;99.90;;;;;;5026586;28;20291;-75
2021/12/31 09:13:37;;;;;;;2.28;1.98;;;12.70;99.90;;;;;;5026175;28;20308;-75
2021/12/31 09:16:03;;;;;;;2.50;2.30;;;13.20;99.90;;;;;;5023046;28;20187;-75
2021/12/31 09:18:29;;;;;;;2.20;2.00;;;13.70;99.90;;;;;;5020042;28;20228;-75
2021/12/31 09:20:54;;;;;;;2.53;2.33;;;13.80;99.90;;;;;;5027120;28;20258;-76
2021/12/31 09:23:20;;;;;;;3.05;2.10;;;13.90;99.90;;;;;;5025750;28;20177;-76
2021/12/31 09:25:46;;;;;;;2.13;2.00;;;13.90;99.90;;;;;;5039850;28;20599;-76
2021/12/31 09:28:11;;;;;;;2.10;2.00;;;13.80;99.90;;;;;;5033837;28;20695;-76
2021/12/31 09:30:37;;;;;;;2.50;2.30;;;13.60;99.90;;;;;;5034190;28;20197;-76
2021/12/31 09:33:03;;;;;;;2.40;2.30;;;13.30;99.90;;;;;;5030555;28;20188;-76
2021/12/31 09:35:28;;;;;;;2.08;1.90;;;13.50;99.90;;;;;;5026766;28;20216;-78
2021/12/31 09:37:55;;;;;;;1.98;1.88;;;15.00;99.90;;;;;;5031585;28;20315;-80
2021/12/31 09:40:22;;;;;;;1.90;1.80;;;17.10;99.90;;;;;;5033661;28;20554;-78
2021/12/31 09:43:17;;;;;;;1.90;1.80;;;19.40;99.90;;;;;;5028573;28;20582;-79
2021/12/31 09:45:45;;;;;;;2.15;1.50;;;21.30;99.90;;;;;;5032935;28;20201;-79
2021/12/31 09:48:12;;;;;;;2.08;1.88;;;22.50;99.90;;;;;;5027233;28;20568;-79
2021/12/31 09:50:43;;;;;;;1.67;1.58;;;23.20;99.90;;;;;;5036011;28;20207;-80
2021/12/31 09:53:11;;;;;;;1.88;1.65;;;24.00;99.90;;;;;;5028085;28;20675;-79
2021/12/31 09:55:41;;;;;;;2.03;1.63;;;23.80;96.60;;;;;;5033207;28;20583;-79
2021/12/31 09:58:09;;;;;;;1.90;1.80;;;24.10;95.10;;;;;;5030885;28;20579;-79
2021/12/31 10:00:36;;;;;;;2.88;2.17;;;24.80;92.70;;;;;;5026272;28;20323;-80
2021/12/31 10:03:29;;;;;;;1.40;1.30;;;25.50;90.20;;;;;;5025537;28;20638;-80
2021/12/31 10:06:09;;;;;;;1.20;1.20;;;25.60;85.70;;;;;;5034593;28;20226;-80
2021/12/31 10:08:43;;;;;;;1.65;1.45;;;25.20;85.50;;;;;;5036953;28;20657;-80
2021/12/31 10:11:11;;;;;;;1.10;1.10;;;25.20;83.90;;;;;;5036414;28;21149;-79
2021/12/31 10:13:42;;;;;;;1.52;1.42;;;25.30;83.10;;;;;;5037684;28;20292;-80
2021/12/31 10:16:37;;;;;;;1.77;1.60;;;25.00;83.60;;;;;;5025621;28;20606;-80
2021/12/31 10:19:20;;;;;;;1.70;1.60;;;25.70;82.90;;;;;;5029945;28;20665;-80
2021/12/31 10:21:51;;;;;;;1.58;1.48;;;25.20;81.20;;;;;;5038749;28;20662;-79
2021/12/31 10:24:34;;;;;;;1.60;1.50;;;25.70;81.90;;;;;;5037124;28;20176;-80
2021/12/31 10:27:17;;;;;;;2.03;1.92;;;25.40;80.40;;;;;;5029843;28;20180;-80
2021/12/31 10:30:00;;;;;;;2.60;2.40;;;26.30;80.10;;;;;;5032870;28;20207;-80
2021/12/31 10:32:31;;;;;;;3.10;2.90;;;26.40;77.90;;;;;;5031312;28;20578;-80
2021/12/31 10:35:23;;;;;;;3.00;2.80;;;26.80;78.10;;;;;;5029664;28;20196;-80
2021/12/31 10:37:57;;;;;;;2.78;2.58;;;27.60;74.40;;;;;;5022644;28;20216;-80
2021/12/31 10:40:30;;;;;;;2.83;2.55;;;27.80;73.30;;;;;;5020657;28;20196;-80
2021/12/31 10:43:18;;;;;;;3.00;2.80;;;27.90;71.10;;;;;;5032691;28;20187;-81
2021/12/31 10:46:08;;;;;;;2.38;2.28;;;27.80;71.50;;;;;;5037107;28;20176;-80
2021/12/31 10:48:45;;;;;;;2.65;2.45;;;28.40;69.30;;;;;;5028924;28;20177;-79
2021/12/31 10:51:16;;;;;;;2.35;2.25;;;28.10;68.20;;;;;;5032758;28;20211;-79
2021/12/31 10:53:50;;;;;;;2.30;2.20;;;28.70;68.10;;;;;;5027589;28;20275;-80
2021/12/31 10:56:16;;;;;;;2.30;2.20;;;28.70;66.50;;;;;;5029510;28;20184;-79
2021/12/31 10:58:44;;;;;;;2.05;1.95;;;28.20;67.30;;;;;;5031741;28;20208;-77
2021/12/31 11:01:13;;;;;;;2.33;2.13;;;28.90;66.10;;;;;;5031611;28;20209;-77
2021/12/31 11:03:40;;;;;;;2.42;2.25;;;29.70;63.80;;;;;;5032577;28;20180;-77
2021/12/31 11:06:07;;;;;;;2.60;2.40;;;28.80;64.20;;;;;;5028836;28;20665;-77
2021/12/31 11:08:34;;;;;;;2.55;2.35;;;27.70;66.80;;;;;;5019129;28;20553;-77
2021/12/31 11:11:02;;;;;;;2.75;2.15;;;27.70;66.70;;;;;;5024527;28;20221;-80
2021/12/31 11:13:30;;;;;;;2.03;1.92;;;28.20;66.40;;;;;;5023076;28;20249;-80
2021/12/31 11:15:57;;;;;;;2.47;2.28;;;27.90;66.00;;;;;;5024145;28;21854;-80
2021/12/31 11:18:23;;;;;;;2.25;2.15;;;27.50;66.50;;;;;;5024054;28;20204;-80
2021/12/31 11:20:51;;;;;;;3.97;2.50;;;27.40;67.30;;;;;;5032714;28;20264;-80
2021/12/31 11:23:22;;;;;;;2.08;1.98;;;27.70;67.30;;;;;;5033057;28;20248;-81
2021/12/31 11:26:00;;;;;;;2.20;2.08;;;27.70;66.80;;;;;;5032785;28;20173;-80
2021/12/31 11:28:30;;;;;;;2.08;1.98;;;28.30;65.60;;;;;;5034561;28;20207;-80
2021/12/31 11:31:16;;;;;;;1.90;1.80;;;29.10;63.20;;;;;;5033373;28;20613;-80
2021/12/31 11:33:43;;;;;;;2.50;2.30;;;29.20;62.50;;;;;;5032528;28;20291;-80
2021/12/31 11:36:11;;;;;;;2.28;2.13;;;29.60;61.30;;;;;;5030634;28;20204;-80
2021/12/31 11:38:41;;;;;;;2.53;2.33;;;29.30;62.70;;;;;;5028570;28;20254;-80
2021/12/31 11:41:13;;;;;;;1.67;1.63;;;29.50;60.80;;;;;;5016324;28;20216;-80
2021/12/31 11:43:41;;;;;;;1.80;1.70;;;29.90;61.70;;;;;;5020756;28;20184;-79
2021/12/31 11:46:12;;;;;;;2.28;2.17;;;29.80;60.00;;;;;;5029964;28;20179;-81
2021/12/31 11:48:44;;;;;;;3.05;2.67;;;28.80;62.30;;;;;;5029905;28;20742;-81
2021/12/31 11:51:16;;;;;;;2.78;2.40;;;28.10;63.50;;;;;;5035809;28;20318;-81
2021/12/31 11:53:59;;;;;;;2.63;2.45;;;28.40;63.40;;;;;;5036746;28;20271;-81
2021/12/31 11:56:37;;;;;;;3.42;2.53;;;29.20;62.20;;;;;;5029491;28;20188;-79
2021/12/31 11:59:08;;;;;;;2.13;2.03;;;29.90;60.70;;;;;;5037121;28;20212;-79
2021/12/31 12:01:37;;;;;;;2.95;2.70;;;29.70;59.80;;;;;;5033953;28;20197;-81
2021/12/31 12:04:25;;;;;;;2.95;2.75;;;29.50;59.70;;;;;;5030940;28;20234;-78
2021/12/31 12:07:19;;;;;;;2.20;2.10;;;28.50;61.70;;;;;;5025903;28;20190;-77
2021/12/31 12:09:45;;;;;;;2.85;2.30;;;28.00;62.50;;;;;;5030839;28;20212;-77
2021/12/31 12:12:15;;;;;;;2.80;2.70;;;26.70;66.60;;;;;;5035680;28;20196;-78
2021/12/31 12:14:46;;;;;;;3.58;2.50;;;27.10;65.60;;;;;;5033926;28;20211;-78
2021/12/31 12:17:13;;;;;;;2.30;2.10;;;27.10;65.30;;;;;;5033887;28;20201;-79
2021/12/31 12:19:45;;;;;;;2.40;2.30;;;27.10;64.70;;;;;;5032159;28;20193;-82
2021/12/31 12:22:24;;;;;;;2.13;2.03;;;26.60;65.90;;;;;;5024447;28;20192;-80
2021/12/31 12:24:51;;;;;;;2.33;2.22;;;26.00;66.30;;;;;;5030942;28;20177;-76
2021/12/31 12:27:17;;;;;;;2.65;1.90;;;25.90;67.60;;;;;;5035728;28;20183;-79
2021/12/31 12:29:44;;;;;;;2.22;2.10;;;25.70;67.90;;;;;;5035465;28;20184;-78
2021/12/31 12:32:11;;;;;;;2.50;2.33;;;26.20;68.00;;;;;;5033395;28;20201;-79
2021/12/31 12:34:37;;;;;;;2.15;2.05;;;26.30;67.00;;;;;;5030948;28;20588;-79
2021/12/31 12:37:03;;;;;;;1.95;1.85;;;25.90;67.20;;;;;;5037410;28;20200;-79
2021/12/31 12:39:30;;;;;;;1.90;1.80;;;26.10;67.60;;;;;;5033695;28;20548;-79
2021/12/31 12:41:56;;;;;;;2.20;2.10;;;25.60;67.40;;;;;;5035107;28;20216;-79
2021/12/31 12:44:21;;;;;;;2.22;2.10;;;24.70;70.30;;;;;;5037859;28;20180;-79
2021/12/31 12:46:57;;;;;;;2.00;1.90;;;24.40;70.90;;;;;;5036874;28;20803;-79
2021/12/31 12:49:26;;;;;;;2.30;2.10;;;23.90;72.00;;;;;;5036452;28;20176;-79
2021/12/31 12:51:54;;;;;;;2.00;1.90;;;23.50;73.00;;;;;;5036274;28;20664;-79